Time,TemperatureF,DewpointF,PressureIn,WindDirection,WindDirectionDegrees,WindSpeedMPH,WindSpeedGustMPH,Humidity,HourlyPrecipIn,Conditions,Clouds,dailyrainin,SoftwareType,DateUTC
2013-05-21 00:10:00,59.7,43.5,30.06,SSW,193,0.0,0.0,55,0.00,,,0.00,WMR918D-Custom,2013-05-21 07:10:00,
2013-05-21 00:20:00,59.4,43.5,30.06,SSW,195,0.0,0.0,56,0.00,,,0.00,WMR918D-Custom,2013-05-21 07:20:00,
2013-05-21 00:30:00,59.0,43.5,30.03,SSW,194,0.0,0.0,57,0.00,,,0.00,WMR918D-Custom,2013-05-21 07:30:00,
2013-05-21 00:40:00,58.8,44.1,30.03,SSW,194,0.0,0.0,59,0.00,,,0.00,WMR918D-Custom,2013-05-21 07:40:00,
2013-05-21 00:50:00,58.8,44.1,30.03,SSW,197,0.0,0.0,59,0.00,,,0.00,WMR918D-Custom,2013-05-21 07:50:00,
2013-05-21 01:00:00,58.6,44.6,30.03,South,188,0.0,0.0,61,0.00,,,0.00,WMR918D-Custom,2013-05-21 08:00:00,
2013-05-21 01:10:00,58.5,44.4,30.03,South,188,0.0,0.0,61,0.00,,,0.00,WMR918D-Custom,2013-05-21 08:10:00,
2013-05-21 01:20:00,58.3,43.9,30.03,South,187,0.0,0.0,60,0.00,,,0.00,WMR918D-Custom,2013-05-21 08:20:00,
2013-05-21 01:30:00,58.3,44.2,30.03,South,187,0.0,0.0,61,0.00,,,0.00,WMR918D-Custom,2013-05-21 08:30:00,
2013-05-21 01:40:00,58.1,44.4,30.03,SSW,203,0.0,0.0,62,0.00,,,0.00,WMR918D-Custom,2013-05-21 08:40:00,
2013-05-21 01:50:00,58.1,44.4,30.03,SSW,203,0.0,0.0,62,0.00,,,0.00,WMR918D-Custom,2013-05-21 08:50:00,
2013-05-21 02:00:00,57.9,44.6,30.03,SSW,204,0.0,0.0,63,0.00,,,0.00,WMR918D-Custom,2013-05-21 09:00:00,
2013-05-21 02:10:00,57.9,45.0,30.03,SSW,192,0.0,0.0,64,0.00,,,0.00,WMR918D-Custom,2013-05-21 09:10:00,
2013-05-21 02:20:00,57.7,45.1,30.03,SSW,192,0.0,0.0,65,0.00,,,0.00,WMR918D-Custom,2013-05-21 09:20:00,
2013-05-21 02:30:00,57.6,45.0,30.03,SSW,206,0.0,0.0,65,0.00,,,0.00,WMR918D-Custom,2013-05-21 09:30:00,
2013-05-21 02:40:00,57.4,44.8,30.03,WNW,301,0.0,0.0,65,0.00,,,0.00,WMR918D-Custom,2013-05-21 09:40:00,
2013-05-21 02:50:00,57.2,44.2,30.03,SSW,211,0.0,0.0,64,0.00,,,0.00,WMR918D-Custom,2013-05-21 09:50:00,
2013-05-21 03:00:00,56.8,43.9,30.03,SSW,211,0.0,0.0,64,0.00,,,0.00,WMR918D-Custom,2013-05-21 10:00:00,
2013-05-21 03:10:00,56.8,44.6,30.03,SSW,211,0.0,0.0,66,0.00,,,0.00,WMR918D-Custom,2013-05-21 10:10:00,
2013-05-21 03:20:00,56.7,44.4,30.03,SSW,211,0.0,0.0,66,0.00,,,0.00,WMR918D-Custom,2013-05-21 10:20:00,
2013-05-21 03:30:00,56.7,44.4,30.03,SSW,210,0.0,0.0,66,0.00,,,0.00,WMR918D-Custom,2013-05-21 10:30:00,
2013-05-21 03:40:00,56.7,44.8,30.03,SSW,210,0.0,0.0,67,0.00,,,0.00,WMR918D-Custom,2013-05-21 10:40:00,
2013-05-21 03:50:00,56.5,44.6,30.03,SSW,210,0.0,0.0,67,0.00,,,0.00,WMR918D-Custom,2013-05-21 10:50:00,
2013-05-21 04:00:00,56.3,44.8,30.03,SSW,210,0.0,0.0,68,0.00,,,0.00,WMR918D-Custom,2013-05-21 11:00:00,
2013-05-21 04:10:00,56.5,45.0,30.03,SSW,196,0.0,0.0,68,0.00,,,0.00,WMR918D-Custom,2013-05-21 11:10:00,
2013-05-21 04:20:00,56.1,44.6,30.03,NNE,31,0.0,0.0,68,0.00,,,0.00,WMR918D-Custom,2013-05-21 11:20:00,
2013-05-21 04:30:00,56.1,44.6,30.03,WNW,283,0.0,0.0,68,0.00,,,0.00,WMR918D-Custom,2013-05-21 11:30:00,
2013-05-21 04:40:00,56.1,44.6,30.03,WNW,283,0.0,0.0,68,0.00,,,0.00,WMR918D-Custom,2013-05-21 11:40:00,
2013-05-21 04:50:00,56.1,44.6,30.03,SE,144,0.0,0.0,68,0.00,,,0.00,WMR918D-Custom,2013-05-21 11:50:00,
2013-05-21 05:00:00,55.9,44.4,30.06,ESE,118,0.0,0.0,68,0.00,,,0.00,WMR918D-Custom,2013-05-21 12:00:00,
2013-05-21 05:10:00,55.9,44.8,30.03,ESE,118,0.0,0.0,69,0.00,,,0.00,WMR918D-Custom,2013-05-21 12:10:00,
2013-05-21 05:20:00,55.9,44.8,30.03,ESE,118,0.0,0.0,69,0.00,,,0.00,WMR918D-Custom,2013-05-21 12:20:00,
2013-05-21 05:30:00,55.9,44.8,30.06,WSW,243,0.0,0.0,69,0.00,,,0.00,WMR918D-Custom,2013-05-21 12:30:00,
2013-05-21 05:40:00,55.9,44.8,30.06,WSW,241,0.0,0.0,69,0.00,,,0.00,WMR918D-Custom,2013-05-21 12:40:00,
2013-05-21 05:50:00,55.9,44.8,30.06,WSW,237,0.0,0.0,69,0.00,,,0.00,WMR918D-Custom,2013-05-21 12:50:00,
2013-05-21 06:00:00,55.9,44.8,30.06,SW,236,0.0,0.0,69,0.00,,,0.00,WMR918D-Custom,2013-05-21 13:00:00,
2013-05-21 06:10:00,55.9,45.1,30.06,WSW,237,0.0,0.0,70,0.00,,,0.00,WMR918D-Custom,2013-05-21 13:10:00,
2013-05-21 06:20:00,55.9,45.1,30.06,SW,218,0.0,0.0,70,0.00,,,0.00,WMR918D-Custom,2013-05-21 13:20:00,
2013-05-21 06:30:00,55.9,45.5,30.06,SW,219,0.0,0.0,71,0.00,,,0.00,WMR918D-Custom,2013-05-21 13:30:00,
2013-05-21 06:40:00,56.1,45.7,30.06,SW,217,0.0,0.0,71,0.00,,,0.00,WMR918D-Custom,2013-05-21 13:40:00,
2013-05-21 06:50:00,56.3,45.9,30.06,SW,218,0.0,0.0,71,0.00,,,0.00,WMR918D-Custom,2013-05-21 13:50:00,
2013-05-21 07:00:00,56.5,46.4,30.09,SW,218,0.0,0.0,72,0.00,,,0.00,WMR918D-Custom,2013-05-21 14:00:00,
2013-05-21 07:10:00,57.0,46.9,30.09,SW,222,0.0,0.0,72,0.00,,,0.00,WMR918D-Custom,2013-05-21 14:10:00,
2013-05-21 07:20:00,57.6,47.5,30.09,SW,222,0.0,0.0,72,0.00,,,0.00,WMR918D-Custom,2013-05-21 14:20:00,
2013-05-21 07:30:00,57.9,47.8,30.09,SW,221,0.0,0.0,72,0.00,,,0.00,WMR918D-Custom,2013-05-21 14:30:00,
2013-05-21 07:40:00,58.5,48.4,30.09,SE,125,0.0,0.0,72,0.00,,,0.00,WMR918D-Custom,2013-05-21 14:40:00,
2013-05-21 07:50:00,59.2,49.1,30.09,South,189,0.0,0.0,72,0.00,,,0.00,WMR918D-Custom,2013-05-21 14:50:00,
2013-05-21 08:00:00,59.9,49.8,30.09,ESE,102,0.0,0.0,72,0.00,,,0.00,WMR918D-Custom,2013-05-21 15:00:00,
2013-05-21 08:10:00,60.1,49.6,30.09,NE,49,0.0,0.0,71,0.00,,,0.00,WMR918D-Custom,2013-05-21 15:10:00,
2013-05-21 08:20:00,60.4,49.6,30.09,East,86,0.0,0.0,70,0.00,,,0.00,WMR918D-Custom,2013-05-21 15:20:00,
2013-05-21 08:30:00,60.8,49.6,30.09,SE,124,0.0,0.0,69,0.00,,,0.00,WMR918D-Custom,2013-05-21 15:30:00,
2013-05-21 08:40:00,61.3,49.8,30.09,SSE,158,0.0,0.0,68,0.00,,,0.00,WMR918D-Custom,2013-05-21 15:40:00,
2013-05-21 08:50:00,62.1,50.2,30.09,ESE,103,0.0,0.0,67,0.00,,,0.00,WMR918D-Custom,2013-05-21 15:50:00,
2013-05-21 09:00:00,63.3,50.7,30.09,South,176,2.2,0.0,65,0.00,,,0.00,WMR918D-Custom,2013-05-21 16:00:00,
2013-05-21 09:10:00,63.5,49.1,30.09,NE,49,2.7,2.7,60,0.00,,,0.00,WMR918D-Custom,2013-05-21 16:10:00,
2013-05-21 09:20:00,64.2,50.2,30.09,NW,313,2.7,2.7,61,0.00,,,0.00,WMR918D-Custom,2013-05-21 16:20:00,
2013-05-21 09:30:00,64.8,50.4,30.09,ESE,108,2.2,2.7,60,0.00,,,0.00,WMR918D-Custom,2013-05-21 16:30:00,
2013-05-21 09:40:00,64.9,49.5,30.09,NNE,33,2.2,2.7,57,0.00,,,0.00,WMR918D-Custom,2013-05-21 16:40:00,
2013-05-21 09:50:00,65.1,49.6,30.09,NE,49,0.0,0.0,57,0.00,,,0.00,WMR918D-Custom,2013-05-21 16:50:00,
2013-05-21 10:00:00,66.4,51.3,30.09,North,357,0.0,0.0,58,0.00,,,0.00,WMR918D-Custom,2013-05-21 17:00:00,
2013-05-21 10:10:00,67.8,52.0,30.09,WNW,303,4.5,4.5,56,0.00,,,0.00,WMR918D-Custom,2013-05-21 17:10:00,
2013-05-21 10:20:00,68.9,52.3,30.09,West,267,2.7,4.9,54,0.00,,,0.00,WMR918D-Custom,2013-05-21 17:20:00,
2013-05-21 10:30:00,69.4,52.5,30.09,SW,236,3.6,6.7,53,0.00,,,0.00,WMR918D-Custom,2013-05-21 17:30:00,
2013-05-21 10:40:00,70.5,51.8,30.09,NNW,328,4.5,6.3,48,0.00,,,0.00,WMR918D-Custom,2013-05-21 17:40:00,
2013-05-21 10:50:00,71.1,52.0,30.09,NNW,344,6.3,6.3,47,0.00,,,0.00,WMR918D-Custom,2013-05-21 17:50:00,
2013-05-21 11:00:00,71.2,51.4,30.12,WSW,252,3.1,3.1,45,0.00,,,0.00,WMR918D-Custom,2013-05-21 18:00:00,
2013-05-21 11:10:00,71.6,51.4,30.12,NW,315,3.1,4.0,44,0.00,,,0.00,WMR918D-Custom,2013-05-21 18:10:00,
2013-05-21 11:20:00,72.1,51.3,30.12,West,271,5.4,7.6,42,0.00,,,0.00,WMR918D-Custom,2013-05-21 18:20:00,
2013-05-21 11:30:00,72.7,51.8,30.09,NNW,334,4.0,5.4,42,0.00,,,0.00,WMR918D-Custom,2013-05-21 18:30:00,
2013-05-21 11:40:00,72.7,50.4,30.09,NNW,330,4.0,5.8,38,0.00,,,0.00,WMR918D-Custom,2013-05-21 18:40:00,
2013-05-21 11:50:00,73.4,50.0,30.09,WNW,287,4.5,4.9,35,0.00,,,0.00,WMR918D-Custom,2013-05-21 18:50:00,
2013-05-21 12:00:00,73.4,49.6,30.09,NW,320,5.8,7.6,34,0.00,,,0.00,WMR918D-Custom,2013-05-21 19:00:00,
2013-05-21 12:10:00,74.1,50.4,30.09,NW,318,4.5,5.4,34,0.00,,,0.00,WMR918D-Custom,2013-05-21 19:10:00,
2013-05-21 12:20:00,74.7,50.5,30.09,West,271,2.7,4.9,33,0.00,,,0.00,WMR918D-Custom,2013-05-21 19:20:00,
2013-05-21 12:30:00,74.8,50.4,30.09,North,353,4.0,4.0,32,0.00,,,0.00,WMR918D-Custom,2013-05-21 19:30:00,
2013-05-21 12:40:00,74.5,49.6,30.09,WSW,256,4.9,6.3,31,0.00,,,0.00,WMR918D-Custom,2013-05-21 19:40:00,
2013-05-21 12:50:00,73.9,49.1,30.09,WNW,285,6.3,8.1,31,0.00,,,0.00,WMR918D-Custom,2013-05-21 19:50:00,
2013-05-21 13:00:00,73.8,48.9,30.09,WNW,292,4.9,4.9,31,0.00,,,0.00,WMR918D-Custom,2013-05-21 20:00:00,
2013-05-21 13:10:00,74.3,49.5,30.09,South,189,4.0,4.0,31,0.00,,,0.00,WMR918D-Custom,2013-05-21 20:10:00,
2013-05-21 13:20:00,75.0,50.2,30.09,WNW,282,6.3,6.3,31,0.00,,,0.00,WMR918D-Custom,2013-05-21 20:20:00,
2013-05-21 13:30:00,75.0,50.2,30.09,West,260,4.9,12.8,31,0.00,,,0.00,WMR918D-Custom,2013-05-21 20:30:00,
2013-05-21 13:40:00,74.3,49.5,30.09,WSW,239,4.0,6.3,31,0.00,,,0.00,WMR918D-Custom,2013-05-21 20:40:00,
2013-05-21 13:50:00,74.7,49.8,30.09,NNE,32,0.0,0.0,31,0.00,,,0.00,WMR918D-Custom,2013-05-21 20:50:00,
2013-05-21 14:00:00,74.5,50.0,30.09,North,1,7.2,8.1,32,0.00,,,0.00,WMR918D-Custom,2013-05-21 21:00:00,
2013-05-21 14:10:00,73.8,49.3,30.09,NNE,32,5.8,5.8,32,0.00,,,0.00,WMR918D-Custom,2013-05-21 21:10:00,
2013-05-21 14:20:00,73.6,49.1,30.09,WNW,296,2.2,3.1,32,0.00,,,0.00,WMR918D-Custom,2013-05-21 21:20:00,
2013-05-21 14:30:00,74.5,49.6,30.09,West,265,5.4,5.4,31,0.00,,,0.00,WMR918D-Custom,2013-05-21 21:30:00,
2013-05-21 14:40:00,74.3,49.8,30.09,NW,308,4.5,4.5,32,0.00,,,0.00,WMR918D-Custom,2013-05-21 21:40:00,
2013-05-21 14:50:00,73.2,49.1,30.09,West,267,3.6,5.4,33,0.00,,,0.00,WMR918D-Custom,2013-05-21 21:50:00,
2013-05-21 15:00:00,71.8,47.7,30.09,NW,313,8.1,8.1,33,0.00,,,0.00,WMR918D-Custom,2013-05-21 22:00:00,
2013-05-21 15:10:00,71.4,47.7,30.09,West,269,10.5,10.5,34,0.00,,,0.00,WMR918D-Custom,2013-05-21 22:10:00,
2013-05-21 15:20:00,71.4,47.7,30.09,WNW,292,6.3,6.3,34,0.00,,,0.00,WMR918D-Custom,2013-05-21 22:20:00,
2013-05-21 15:30:00,71.4,48.0,30.09,NNW,332,7.6,7.6,35,0.00,,,0.00,WMR918D-Custom,2013-05-21 22:30:00,
2013-05-21 15:40:00,71.2,47.8,30.09,WSW,257,5.4,5.4,35,0.00,,,0.00,WMR918D-Custom,2013-05-21 22:40:00,
2013-05-21 15:50:00,70.7,47.3,30.09,WSW,251,8.1,10.5,35,0.00,,,0.00,WMR918D-Custom,2013-05-21 22:50:00,
2013-05-21 16:00:00,69.6,46.2,30.09,WSW,255,7.6,7.6,35,0.00,,,0.00,WMR918D-Custom,2013-05-21 23:00:00,
2013-05-21 16:10:00,69.6,46.6,30.09,West,267,5.8,6.3,36,0.00,,,0.00,WMR918D-Custom,2013-05-21 23:10:00,
2013-05-21 16:20:00,70.2,47.1,30.09,SSW,203,5.4,5.8,36,0.00,,,0.00,WMR918D-Custom,2013-05-21 23:20:00,
2013-05-21 16:30:00,70.2,47.1,30.09,NW,305,6.3,6.3,36,0.00,,,0.00,WMR918D-Custom,2013-05-21 23:30:00,
2013-05-21 16:40:00,70.3,46.9,30.09,SW,221,6.3,6.3,35,0.00,,,0.00,WMR918D-Custom,2013-05-21 23:40:00,
2013-05-21 16:50:00,69.8,46.4,30.09,WNW,298,7.2,8.1,35,0.00,,,0.00,WMR918D-Custom,2013-05-21 23:50:00,
2013-05-21 17:00:00,69.3,46.2,30.09,WSW,255,4.0,4.0,36,0.00,,,0.00,WMR918D-Custom,2013-05-22 00:00:00,
2013-05-21 17:10:00,69.1,46.4,30.09,NW,307,3.1,3.1,37,0.00,,,0.00,WMR918D-Custom,2013-05-22 00:10:00,
2013-05-21 17:20:00,68.4,46.0,30.09,NNW,335,4.5,4.5,38,0.00,,,0.00,WMR918D-Custom,2013-05-22 00:20:00,
2013-05-21 17:30:00,68.2,46.2,30.09,NNW,340,6.3,6.3,39,0.00,,,0.00,WMR918D-Custom,2013-05-22 00:30:00,
2013-05-21 17:40:00,68.0,46.0,30.09,NW,308,5.8,5.8,39,0.00,,,0.00,WMR918D-Custom,2013-05-22 00:40:00,
2013-05-21 17:50:00,67.6,46.0,30.09,NW,307,4.9,4.9,40,0.00,,,0.00,WMR918D-Custom,2013-05-22 00:50:00,
2013-05-21 18:00:00,67.5,45.9,30.09,NNW,335,3.1,4.0,40,0.00,,,0.00,WMR918D-Custom,2013-05-22 01:00:00,
2013-05-21 18:10:00,66.9,45.7,30.06,NNW,327,4.9,5.8,41,0.00,,,0.00,WMR918D-Custom,2013-05-22 01:10:00,
2013-05-21 18:20:00,66.6,45.3,30.06,NW,307,5.4,5.4,41,0.00,,,0.00,WMR918D-Custom,2013-05-22 01:20:00,
2013-05-21 18:30:00,65.8,45.0,30.06,NNW,328,5.8,6.3,42,0.00,,,0.00,WMR918D-Custom,2013-05-22 01:30:00,
2013-05-21 18:40:00,65.7,44.8,30.06,WNW,287,4.9,4.9,42,0.00,,,0.00,WMR918D-Custom,2013-05-22 01:40:00,
2013-05-21 18:50:00,65.5,45.0,30.06,NW,323,3.6,8.1,43,0.00,,,0.00,WMR918D-Custom,2013-05-22 01:50:00,
2013-05-21 19:00:00,65.1,44.6,30.06,NW,318,3.1,3.1,43,0.00,,,0.00,WMR918D-Custom,2013-05-22 02:00:00,
2013-05-21 19:10:00,64.9,44.4,30.06,NNW,342,5.8,5.8,43,0.00,,,0.00,WMR918D-Custom,2013-05-22 02:10:00,
2013-05-21 19:20:00,64.2,43.7,30.06,North,0,4.9,8.3,43,0.00,,,0.00,WMR918D-Custom,2013-05-22 02:20:00,
2013-05-21 19:30:00,63.1,42.6,30.06,North,357,6.3,7.6,43,0.00,,,0.00,WMR918D-Custom,2013-05-22 02:30:00,
2013-05-21 19:40:00,62.2,42.1,30.06,WSW,238,6.3,11.0,44,0.00,,,0.00,WMR918D-Custom,2013-05-22 02:40:00,
2013-05-21 19:50:00,61.9,41.7,30.06,NNW,327,3.1,3.6,44,0.00,,,0.00,WMR918D-Custom,2013-05-22 02:50:00,
2013-05-21 20:00:00,61.2,41.0,30.06,WNW,284,4.0,5.4,44,0.00,,,0.00,WMR918D-Custom,2013-05-22 03:00:00,
2013-05-21 20:10:00,60.4,40.6,30.09,WNW,287,7.2,10.5,45,0.00,,,0.00,WMR918D-Custom,2013-05-22 03:10:00,
2013-05-21 20:20:00,59.9,40.1,30.09,West,260,3.1,3.6,45,0.00,,,0.00,WMR918D-Custom,2013-05-22 03:20:00,
2013-05-21 20:30:00,59.4,39.6,30.06,WNW,302,2.7,2.7,45,0.00,,,0.00,WMR918D-Custom,2013-05-22 03:30:00,
2013-05-21 20:40:00,58.8,39.4,30.06,WSW,256,3.6,4.9,46,0.00,,,0.00,WMR918D-Custom,2013-05-22 03:40:00,
2013-05-21 20:50:00,58.3,39.2,30.06,WNW,298,2.7,5.4,47,0.00,,,0.00,WMR918D-Custom,2013-05-22 03:50:00,
2013-05-21 21:00:00,58.1,39.0,30.06,NNW,344,4.0,4.0,47,0.00,,,0.00,WMR918D-Custom,2013-05-22 04:00:00,
2013-05-21 21:10:00,57.9,38.8,30.09,WSW,247,2.2,3.6,47,0.00,,,0.00,WMR918D-Custom,2013-05-22 04:10:00,
2013-05-21 21:20:00,57.6,38.5,30.09,NNW,332,3.6,4.0,47,0.00,,,0.00,WMR918D-Custom,2013-05-22 04:20:00,
2013-05-21 21:30:00,57.4,38.3,30.09,NNE,15,0.0,2.7,47,0.00,,,0.00,WMR918D-Custom,2013-05-22 04:30:00,
2013-05-21 21:40:00,57.0,37.9,30.09,NNE,27,0.0,0.0,47,0.00,,,0.00,WMR918D-Custom,2013-05-22 04:40:00,
2013-05-21 21:50:00,56.8,37.8,30.09,NW,316,0.0,0.0,47,0.00,,,0.00,WMR918D-Custom,2013-05-22 04:50:00,
2013-05-21 22:00:00,56.7,37.6,30.09,WSW,243,2.7,2.7,47,0.00,,,0.00,WMR918D-Custom,2013-05-22 05:00:00,
2013-05-21 22:10:00,56.7,37.6,30.09,WNW,297,4.9,4.9,47,0.00,,,0.00,WMR918D-Custom,2013-05-22 05:10:00,
2013-05-21 22:20:00,56.5,37.4,30.09,North,0,2.2,2.2,47,0.00,,,0.00,WMR918D-Custom,2013-05-22 05:20:00,
2013-05-21 22:30:00,56.3,37.6,30.09,WSW,253,4.5,4.5,48,0.00,,,0.00,WMR918D-Custom,2013-05-22 05:30:00,
2013-05-21 22:40:00,56.1,37.4,30.09,NNW,330,3.1,3.6,48,0.00,,,0.00,WMR918D-Custom,2013-05-22 05:40:00,
2013-05-21 22:50:00,55.8,37.4,30.09,SW,215,4.9,4.9,49,0.00,,,0.00,WMR918D-Custom,2013-05-22 05:50:00,
2013-05-21 23:00:00,55.6,37.2,30.12,NW,326,2.7,2.7,49,0.00,,,0.00,WMR918D-Custom,2013-05-22 06:00:00,
2013-05-21 23:10:00,55.2,37.2,30.09,West,281,7.6,7.6,50,0.00,,,0.00,WMR918D-Custom,2013-05-22 06:10:00,
2013-05-21 23:20:00,55.0,37.0,30.09,WSW,244,5.8,5.8,50,0.00,,,0.00,WMR918D-Custom,2013-05-22 06:20:00,
2013-05-21 23:30:00,54.7,37.0,30.09,WSW,247,4.0,7.6,51,0.00,,,0.00,WMR918D-Custom,2013-05-22 06:30:00,
2013-05-21 23:40:00,54.7,37.0,30.09,NW,316,4.5,4.5,51,0.00,,,0.00,WMR918D-Custom,2013-05-22 06:40:00,
2013-05-21 23:50:00,54.5,36.9,30.09,NNW,340,6.3,6.3,51,0.00,,,0.00,WMR918D-Custom,2013-05-22 06:50:00,